createdAt,value
2023-01-26T00:04:52.459Z,12.03
2023-01-26T00:14:55.357Z,14.70
2023-01-26T00:24:59.660Z,17.13
2023-01-26T00:35:02.861Z,15.03
2023-01-26T00:45:08.799Z,17.03
2023-01-26T00:55:11.836Z,16.07
2023-01-26T01:05:18.644Z,16.60
2023-01-26T01:15:23.233Z,18.93
2023-01-26T01:25:27.592Z,17.83
2023-01-26T01:35:30.489Z,17.93
2023-01-26T01:45:44.787Z,17.63
2023-01-26T01:55:48.147Z,16.50
2023-01-26T02:05:58.454Z,15.50
2023-01-26T02:16:03.270Z,17.40
2023-01-26T02:26:13.025Z,17.00
2023-01-26T02:36:21.345Z,16.13
2023-01-26T02:46:25.846Z,17.13
2023-01-26T02:56:28.854Z,17.17
2023-01-26T03:06:34.097Z,16.30
2023-01-26T03:16:36.882Z,18.80
2023-01-26T03:26:59.097Z,19.17
2023-01-26T03:37:02.470Z,16.63
2023-01-26T03:47:32.276Z,18.57
2023-01-26T03:57:35.324Z,17.70
2023-01-26T04:07:58.180Z,18.37
2023-01-26T04:18:24.645Z,17.53
2023-01-26T04:28:29.448Z,16.97
2023-01-26T04:38:32.554Z,17.73
2023-01-26T04:48:37.510Z,18.07
2023-01-26T04:58:40.630Z,16.80
2023-01-26T05:08:45.727Z,17.30
2023-01-26T05:18:49.241Z,17.60
2023-01-26T05:29:04.269Z,18.03
2023-01-26T05:39:07.673Z,18.53
2023-01-26T05:49:12.498Z,18.50
2023-01-26T05:59:15.738Z,17.90
2023-01-26T06:09:21.332Z,17.03
2023-01-26T06:19:43.343Z,18.53
2023-01-26T06:29:48.988Z,17.77
2023-01-26T06:39:53.190Z,18.27
2023-01-26T06:49:58.177Z,17.00
2023-01-26T07:00:01.408Z,18.47
2023-01-26T07:10:13.565Z,15.93
2023-01-26T07:20:17.431Z,17.30
2023-01-26T07:30:22.111Z,17.27
2023-01-26T07:40:25.452Z,15.87
2023-01-26T07:50:30.257Z,15.83
2023-01-26T08:00:33.296Z,16.90
2023-01-26T08:10:38.225Z,15.93
2023-01-26T08:20:41.402Z,16.20
2023-01-26T08:30:46.000Z,16.97
2023-01-26T08:40:52.967Z,16.77
2023-01-26T08:50:59.247Z,16.27
2023-01-26T09:01:05.622Z,16.97
2023-01-26T09:11:10.761Z,16.07
2023-01-26T09:21:13.807Z,18.07
2023-01-26T09:31:18.414Z,18.73
2023-01-26T09:41:44.843Z,19.90
2023-01-26T09:51:58.180Z,18.57
2023-01-26T10:02:16.982Z,18.47
2023-01-26T10:12:25.576Z,15.73
2023-01-26T10:22:35.065Z,19.70
2023-01-26T10:32:41.277Z,14.67
2023-01-26T10:42:56.339Z,18.07
2023-01-26T10:53:03.261Z,17.40
2023-01-26T11:03:18.469Z,16.63
2023-01-26T11:13:23.659Z,15.97
2023-01-26T11:23:40.606Z,16.20
2023-01-26T11:33:57.556Z,16.60
2023-01-26T11:44:24.283Z,18.93
2023-01-26T11:54:43.642Z,16.83
2023-01-26T12:04:48.184Z,17.40
2023-01-26T12:14:58.833Z,16.83
2023-01-26T12:25:20.849Z,16.53
2023-01-26T12:35:40.567Z,15.80
2023-01-26T12:45:47.313Z,17.55
2023-01-26T12:55:56.281Z,18.50
2023-01-26T13:06:02.274Z,20.30
2023-01-26T13:16:34.839Z,16.80
2023-01-26T13:26:47.723Z,17.87
2023-01-26T13:36:54.191Z,17.83
2023-01-26T13:47:01.577Z,20.00
2023-01-26T13:57:08.074Z,22.70
2023-01-26T14:07:17.921Z,21.60
2023-01-26T14:27:37.593Z,20.27
2023-01-26T14:37:42.278Z,21.07
2023-01-26T14:47:45.482Z,16.03
2023-01-26T14:57:50.058Z,16.20
2023-01-26T15:07:57.974Z,22.00
2023-01-26T15:18:20.438Z,16.90
2023-01-26T15:28:27.251Z,16.80
2023-01-26T15:38:34.242Z,17.30
2023-01-26T15:48:37.162Z,14.37
2023-01-26T15:58:42.261Z,17.03
2023-01-26T16:08:46.970Z,12.20
2023-01-26T16:18:51.806Z,10.33
2023-01-26T16:28:56.170Z,9.33
2023-01-26T16:39:00.797Z,8.77
2023-01-26T16:49:04.253Z,8.37
2023-01-26T16:59:11.157Z,9.47
2023-01-26T17:09:14.201Z,10.50
2023-01-26T17:19:18.664Z,11.83
2023-01-26T17:29:21.697Z,13.23
2023-01-26T17:39:26.369Z,11.97
2023-01-26T17:49:29.515Z,11.23
2023-01-26T17:59:34.093Z,14.80
2023-01-26T18:09:37.208Z,15.57
2023-01-26T18:19:42.383Z,18.80
2023-01-26T18:29:45.585Z,20.00
2023-01-26T18:39:50.042Z,19.20
2023-01-26T18:49:52.843Z,18.43
2023-01-26T18:59:57.200Z,17.67
2023-01-26T19:10:00.136Z,19.03
2023-01-26T19:20:05.240Z,17.20
2023-01-26T19:30:10.125Z,18.87
2023-01-26T19:40:15.718Z,20.30
2023-01-26T19:50:18.684Z,22.83
2023-01-26T20:00:23.747Z,22.63
2023-01-26T20:10:26.787Z,22.20
2023-01-26T20:20:31.622Z,21.20
2023-01-26T20:30:36.429Z,23.77
2023-01-26T20:40:41.128Z,21.73
2023-01-26T20:50:44.888Z,21.30
2023-01-26T21:01:09.955Z,21.47
2023-01-26T21:11:16.054Z,22.20
2023-01-26T21:21:21.684Z,22.03
2023-01-26T21:31:27.029Z,25.93
2023-01-26T21:41:50.668Z,24.87
2023-01-26T21:52:11.934Z,25.77
2023-01-26T22:02:16.335Z,27.37
2023-01-26T22:12:19.556Z,27.83
2023-01-26T22:22:47.859Z,25.83
2023-01-26T22:32:51.333Z,29.10
2023-01-26T22:42:57.112Z,32.67
2023-01-26T22:53:00.364Z,33.30
2023-01-26T23:03:05.454Z,30.27
2023-01-26T23:13:08.924Z,30.93
2023-01-26T23:23:13.297Z,28.33
2023-01-26T23:33:16.975Z,29.10
2023-01-26T23:43:22.268Z,27.63
2023-01-26T23:53:25.528Z,27.80
